createdAt,value
2018-06-15T00:00:53.996Z,18.70
2018-06-15T00:03:58.525Z,18.70
2018-06-15T00:07:03.259Z,18.70
2018-06-15T00:10:07.450Z,18.80
2018-06-15T00:13:11.675Z,18.80
2018-06-15T00:16:15.973Z,18.80
2018-06-15T00:19:20.191Z,18.70
2018-06-15T00:22:24.463Z,18.80
2018-06-15T00:25:28.620Z,18.80
2018-06-15T00:28:33.133Z,18.70
2018-06-15T00:31:37.618Z,18.80
2018-06-15T00:34:41.827Z,18.80
2018-06-15T00:37:45.869Z,18.70
2018-06-15T00:40:50.810Z,18.80
2018-06-15T00:43:54.770Z,18.80
2018-06-15T00:46:59.057Z,18.90
2018-06-15T00:50:03.323Z,18.80
2018-06-15T00:53:07.197Z,18.60
2018-06-15T00:56:11.340Z,18.60
2018-06-15T00:59:15.784Z,18.60
2018-06-15T01:02:20.806Z,18.60
2018-06-15T01:05:25.189Z,18.70
2018-06-15T01:08:29.679Z,18.60
2018-06-15T01:11:33.929Z,18.60
2018-06-15T01:14:38.207Z,18.50
2018-06-15T01:17:42.614Z,18.40
2018-06-15T01:20:46.958Z,18.40
2018-06-15T01:23:51.262Z,18.30
2018-06-15T01:26:55.593Z,18.30
2018-06-15T01:30:00.862Z,18.20
2018-06-15T01:33:05.170Z,18.20
2018-06-15T01:36:09.588Z,18.20
2018-06-15T01:39:13.900Z,18.30
2018-06-15T01:42:18.264Z,18.30
2018-06-15T01:45:22.774Z,18.20
2018-06-15T01:48:27.120Z,18.20
2018-06-15T01:51:31.172Z,18.30
2018-06-15T01:54:35.170Z,18.30
2018-06-15T01:57:39.514Z,18.30
2018-06-15T02:00:43.822Z,18.30
2018-06-15T02:03:48.350Z,18.30
2018-06-15T02:06:52.721Z,18.30
2018-06-15T02:09:57.106Z,18.30
2018-06-15T02:13:01.454Z,18.30
2018-06-15T02:16:05.792Z,18.30
2018-06-15T02:19:10.107Z,18.20
2018-06-15T02:22:14.446Z,18.20
2018-06-15T02:25:18.753Z,18.20
2018-06-15T02:28:23.300Z,18.30
2018-06-15T02:31:27.592Z,18.30
2018-06-15T02:34:32.121Z,18.30
2018-06-15T02:37:36.508Z,18.30
2018-06-15T02:40:40.863Z,18.40
2018-06-15T02:43:45.143Z,18.30
2018-06-15T02:46:49.257Z,18.40
2018-06-15T02:49:53.786Z,18.40
2018-06-15T02:52:58.272Z,18.30
2018-06-15T02:56:02.618Z,18.30
2018-06-15T02:59:06.973Z,18.40
2018-06-15T03:02:11.457Z,18.30
2018-06-15T03:05:15.959Z,18.30
2018-06-15T03:08:20.296Z,18.30
2018-06-15T03:11:24.364Z,18.30
2018-06-15T03:14:28.908Z,18.40
2018-06-15T03:17:33.229Z,18.30
2018-06-15T03:20:37.614Z,18.30
2018-06-15T03:23:41.870Z,18.40
2018-06-15T03:26:46.231Z,18.40
2018-06-15T03:29:50.511Z,18.40
2018-06-15T03:32:54.868Z,18.40
2018-06-15T03:35:59.198Z,18.40
2018-06-15T03:39:04.103Z,18.40
2018-06-15T03:42:08.318Z,18.50
2018-06-15T03:45:13.749Z,18.50
2018-06-15T03:48:18.159Z,18.50
2018-06-15T03:51:22.646Z,18.50
2018-06-15T03:54:27.306Z,18.50
2018-06-15T03:57:31.630Z,18.60
2018-06-15T04:00:36.047Z,18.60
2018-06-15T04:03:40.339Z,18.60
2018-06-15T04:06:44.398Z,18.60
2018-06-15T04:12:52.442Z,18.60
2018-06-15T04:15:56.833Z,18.70
2018-06-15T04:19:00.990Z,18.80
2018-06-15T04:22:05.329Z,18.90
2018-06-15T04:25:09.795Z,18.90
2018-06-15T04:28:14.313Z,18.90
2018-06-15T04:31:18.658Z,18.90
2018-06-15T04:34:22.809Z,19.00
2018-06-15T04:37:27.346Z,19.00
2018-06-15T04:40:31.594Z,19.10
2018-06-15T04:43:35.980Z,19.20
2018-06-15T04:46:40.209Z,19.20
2018-06-15T04:49:44.466Z,19.20
2018-06-15T04:52:48.874Z,19.30
2018-06-15T04:55:53.182Z,19.40
2018-06-15T04:58:57.318Z,19.40
2018-06-15T05:02:01.684Z,19.40
2018-06-15T05:05:06.275Z,19.40
2018-06-15T05:08:10.558Z,19.50
2018-06-15T05:11:14.837Z,19.50
2018-06-15T05:14:19.154Z,19.50
2018-06-15T05:17:23.535Z,19.50
2018-06-15T05:20:27.930Z,19.50
2018-06-15T05:23:32.284Z,19.50
2018-06-15T05:26:36.648Z,19.60
2018-06-15T05:29:40.818Z,19.60
2018-06-15T05:32:45.528Z,19.60
2018-06-15T05:35:49.835Z,19.60
2018-06-15T05:38:54.057Z,19.60
2018-06-15T05:41:58.420Z,19.60
2018-06-15T05:45:02.974Z,19.70
2018-06-15T05:48:08.090Z,19.80
2018-06-15T05:51:12.851Z,19.80
2018-06-15T05:54:17.043Z,20.00
2018-06-15T05:57:21.418Z,20.20
2018-06-15T06:00:27.513Z,20.30
2018-06-15T06:03:31.795Z,20.50
2018-06-15T06:06:36.210Z,20.60
2018-06-15T06:09:40.373Z,20.90
2018-06-15T06:12:44.623Z,21.00
2018-06-15T06:15:49.011Z,21.30
2018-06-15T06:21:57.195Z,22.00
2018-06-15T06:25:01.462Z,22.50
2018-06-15T06:28:05.786Z,23.50
2018-06-15T06:31:10.307Z,24.00
2018-06-15T06:34:14.608Z,24.30
2018-06-15T06:37:18.914Z,24.90
2018-06-15T06:40:23.217Z,25.60
2018-06-15T06:43:27.567Z,25.90
2018-06-15T06:46:31.935Z,26.50
2018-06-15T06:49:36.312Z,27.50
2018-06-15T06:52:41.054Z,27.90
2018-06-15T06:55:45.588Z,27.90
2018-06-15T06:58:49.846Z,28.10
2018-06-15T07:01:54.171Z,28.40
2018-06-15T07:04:58.502Z,28.20
2018-06-15T07:08:02.968Z,28.10
2018-06-15T07:11:07.303Z,28.20
2018-06-15T07:14:11.530Z,28.20
2018-06-15T07:17:15.843Z,27.60
2018-06-15T07:20:20.015Z,27.80
2018-06-15T07:23:24.105Z,28.40
2018-06-15T07:26:28.358Z,29.40
2018-06-15T07:29:32.888Z,31.10
2018-06-15T07:32:37.341Z,32.30
2018-06-15T07:35:41.670Z,32.90
2018-06-15T07:38:46.011Z,32.90
2018-06-15T07:41:50.366Z,32.30
2018-06-15T07:44:54.846Z,31.00
2018-06-15T07:47:58.951Z,30.60
2018-06-15T07:51:03.291Z,30.10
2018-06-15T07:54:07.600Z,30.10
2018-06-15T07:57:11.943Z,29.90
2018-06-15T08:00:15.896Z,29.50
2018-06-15T08:03:20.526Z,29.40
2018-06-15T08:09:52.324Z,29.30
2018-06-15T08:12:56.899Z,29.80
2018-06-15T08:16:01.107Z,29.90
2018-06-15T08:19:05.929Z,29.40
2018-06-15T08:22:10.250Z,29.00
2018-06-15T08:25:14.835Z,28.50
2018-06-15T08:28:19.073Z,28.20
2018-06-15T08:31:23.424Z,27.90
2018-06-15T08:34:27.635Z,27.70
2018-06-15T08:37:31.735Z,27.50
2018-06-15T08:40:36.294Z,27.50
2018-06-15T08:43:41.816Z,27.70
2018-06-15T08:46:46.213Z,27.80
2018-06-15T08:49:50.684Z,27.80
2018-06-15T08:52:54.918Z,28.00
2018-06-15T08:55:59.103Z,28.20
2018-06-15T08:59:03.550Z,28.40
2018-06-15T09:02:08.523Z,28.70
2018-06-15T09:05:13.062Z,28.70
2018-06-15T09:08:17.296Z,28.60
2018-06-15T09:11:21.736Z,28.60
2018-06-15T09:14:26.652Z,28.80
2018-06-15T09:17:30.951Z,28.90
2018-06-15T09:20:35.927Z,28.60
2018-06-15T09:23:40.302Z,28.40
2018-06-15T09:26:44.234Z,28.20
2018-06-15T09:29:48.587Z,28.10
2018-06-15T09:32:52.930Z,27.70
2018-06-15T09:35:57.331Z,27.30
2018-06-15T09:39:01.888Z,27.20
2018-06-15T09:42:06.250Z,27.50
2018-06-15T09:45:10.512Z,27.80
2018-06-15T09:48:14.793Z,27.60
2018-06-15T09:51:19.269Z,27.60
2018-06-15T09:54:23.419Z,27.90
2018-06-15T09:57:27.625Z,28.00
2018-06-15T10:00:36.975Z,28.30
2018-06-15T10:03:41.473Z,28.50
2018-06-15T10:06:45.816Z,28.30
2018-06-15T10:09:50.320Z,28.20
2018-06-15T10:12:54.453Z,28.10
2018-06-15T10:15:58.800Z,27.80
2018-06-15T10:19:03.245Z,27.70
2018-06-15T10:22:07.702Z,27.90
2018-06-15T10:25:12.119Z,27.80
2018-06-15T10:28:16.354Z,27.30
2018-06-15T10:31:20.650Z,27.20
2018-06-15T10:34:24.917Z,27.20
2018-06-15T10:37:29.366Z,27.30
2018-06-15T10:40:33.688Z,27.30
2018-06-15T10:43:37.974Z,27.20
2018-06-15T10:46:42.218Z,26.90
2018-06-15T10:52:50.556Z,26.60
2018-06-15T10:55:54.853Z,26.50
2018-06-15T10:58:59.426Z,26.40
2018-06-15T11:02:03.834Z,26.10
2018-06-15T11:05:08.278Z,25.90
2018-06-15T11:08:12.630Z,25.60
2018-06-15T11:11:17.486Z,25.50
2018-06-15T11:14:21.884Z,25.40
2018-06-15T11:17:26.063Z,25.40
2018-06-15T11:20:30.605Z,25.40
2018-06-15T11:23:35.099Z,25.40
2018-06-15T11:26:39.226Z,25.40
2018-06-15T11:29:43.409Z,25.30
2018-06-15T11:32:47.798Z,25.40
2018-06-15T11:35:52.205Z,25.50
2018-06-15T11:38:57.433Z,25.60
2018-06-15T11:42:01.800Z,25.90
2018-06-15T11:45:06.147Z,26.20
2018-06-15T11:48:10.635Z,26.50
2018-06-15T11:51:15.045Z,26.90
2018-06-15T11:54:19.461Z,27.10
2018-06-15T11:57:23.765Z,27.40
2018-06-15T12:00:28.940Z,27.60
2018-06-15T12:03:33.358Z,27.70
2018-06-15T12:06:37.644Z,27.70
2018-06-15T12:09:41.942Z,27.80
2018-06-15T12:12:47.269Z,27.80
2018-06-15T12:15:51.880Z,27.70
2018-06-15T12:18:56.304Z,27.60
2018-06-15T12:22:00.599Z,27.50
2018-06-15T12:25:05.122Z,27.30
2018-06-15T12:28:09.306Z,27.20
2018-06-15T12:31:13.864Z,27.10
2018-06-15T12:34:18.376Z,27.00
2018-06-15T12:37:22.647Z,26.70
2018-06-15T12:40:27.441Z,26.60
2018-06-15T12:43:31.659Z,26.40
2018-06-15T12:46:36.099Z,26.40
2018-06-15T12:49:40.330Z,26.50
2018-06-15T12:52:44.578Z,26.50
2018-06-15T12:55:49.282Z,26.50
2018-06-15T12:58:53.539Z,26.50
2018-06-15T13:01:57.956Z,26.40
2018-06-15T13:05:02.293Z,26.50
2018-06-15T13:08:06.465Z,26.60
2018-06-15T13:11:10.793Z,26.60
2018-06-15T13:14:15.167Z,26.50
2018-06-15T13:17:19.626Z,26.50
2018-06-15T13:20:23.822Z,26.40
2018-06-15T13:23:28.034Z,26.50
2018-06-15T13:26:32.334Z,26.60
2018-06-15T13:29:36.685Z,26.70
2018-06-15T13:32:40.922Z,26.70
2018-06-15T13:35:45.240Z,26.70
2018-06-15T13:38:49.650Z,26.60
2018-06-15T13:41:54.988Z,26.60
2018-06-15T13:44:59.474Z,26.60
2018-06-15T13:48:03.522Z,26.60
2018-06-15T13:51:08.038Z,26.50
2018-06-15T13:54:13.412Z,26.60
2018-06-15T13:57:17.937Z,26.80
2018-06-15T14:00:22.303Z,26.90
2018-06-15T14:03:26.706Z,26.80
2018-06-15T14:06:31.031Z,26.70
2018-06-15T14:09:35.775Z,26.60
2018-06-15T14:12:40.099Z,26.40
2018-06-15T14:15:44.425Z,26.10
2018-06-15T14:18:48.644Z,26.10
2018-06-15T14:21:52.958Z,26.20
2018-06-15T14:24:57.276Z,26.10
2018-06-15T14:28:01.559Z,26.20
2018-06-15T14:31:06.074Z,26.30
2018-06-15T14:34:11.318Z,26.40
2018-06-15T14:37:15.835Z,26.40
2018-06-15T14:40:20.283Z,26.40
2018-06-15T14:43:24.668Z,26.40
2018-06-15T14:46:29.054Z,26.40
2018-06-15T14:49:33.463Z,26.40
2018-06-15T14:52:37.854Z,26.60
2018-06-15T14:55:42.275Z,26.50
2018-06-15T14:58:46.531Z,26.50
2018-06-15T15:01:51.010Z,26.60
2018-06-15T15:04:55.518Z,26.60
2018-06-15T15:07:59.872Z,26.40
2018-06-15T15:11:04.381Z,26.40
2018-06-15T15:14:08.939Z,26.30
2018-06-15T15:17:13.353Z,26.30
2018-06-15T15:20:17.507Z,26.10
2018-06-15T15:23:21.735Z,25.90
2018-06-15T15:26:27.084Z,25.80
2018-06-15T15:29:31.162Z,25.60
2018-06-15T15:32:35.466Z,25.60
2018-06-15T15:35:39.995Z,25.40
2018-06-15T15:38:44.663Z,25.60
2018-06-15T15:41:48.989Z,25.70
2018-06-15T15:44:53.413Z,25.80
2018-06-15T15:47:57.748Z,25.90
2018-06-15T15:51:03.020Z,26.10
2018-06-15T15:54:07.326Z,26.20
2018-06-15T15:57:17.806Z,26.40
2018-06-15T16:00:22.113Z,26.30
2018-06-15T16:03:26.286Z,26.20
2018-06-15T16:06:30.806Z,26.20
2018-06-15T16:09:35.244Z,26.30
2018-06-15T16:12:39.593Z,26.30
2018-06-15T16:15:43.919Z,26.40
2018-06-15T16:18:48.238Z,26.40
2018-06-15T16:21:52.450Z,26.50
2018-06-15T16:24:56.767Z,26.70
2018-06-15T16:28:01.191Z,26.70
2018-06-15T16:31:05.594Z,26.80
2018-06-15T16:34:09.959Z,26.70
2018-06-15T16:37:14.416Z,26.60
2018-06-15T16:40:19.077Z,26.40
2018-06-15T16:43:24.724Z,26.20
2018-06-15T16:46:29.177Z,26.00
2018-06-15T16:49:33.574Z,25.90
2018-06-15T16:52:37.959Z,25.70
2018-06-15T16:55:42.491Z,25.50
2018-06-15T16:58:46.695Z,25.30
2018-06-15T17:01:51.052Z,25.30
2018-06-15T17:04:54.923Z,25.10
2018-06-15T17:07:58.839Z,24.90
2018-06-15T17:11:02.731Z,24.80
2018-06-15T17:14:07.306Z,24.70
2018-06-15T17:17:11.680Z,24.70
2018-06-15T17:20:15.844Z,24.50
2018-06-15T17:23:20.383Z,24.40
2018-06-15T17:26:24.491Z,24.30
2018-06-15T17:29:28.915Z,24.00
2018-06-15T17:32:33.381Z,23.90
2018-06-15T17:35:37.830Z,23.80
2018-06-15T17:38:48.977Z,23.70
2018-06-15T17:41:53.407Z,23.70
2018-06-15T17:44:57.783Z,23.60
2018-06-15T17:48:01.960Z,23.50
2018-06-15T17:51:06.435Z,23.40
2018-06-15T17:54:10.581Z,23.40
2018-06-15T17:57:15.009Z,23.30
2018-06-15T18:00:19.699Z,23.10
2018-06-15T18:03:24.008Z,23.10
2018-06-15T18:06:28.339Z,23.00
2018-06-15T18:09:32.591Z,23.00
2018-06-15T18:12:36.982Z,22.90
2018-06-15T18:15:41.289Z,22.80
2018-06-15T18:18:45.574Z,22.80
2018-06-15T18:21:49.938Z,22.70
2018-06-15T18:24:54.395Z,22.70
2018-06-15T18:31:02.540Z,22.50
2018-06-15T18:34:06.841Z,22.40
2018-06-15T18:37:11.101Z,22.30
2018-06-15T18:40:15.443Z,22.30
2018-06-15T18:43:19.714Z,22.20
2018-06-15T18:46:23.910Z,22.10
2018-06-15T18:49:28.105Z,22.10
2018-06-15T18:52:32.487Z,22.00
2018-06-15T18:55:37.144Z,22.00
2018-06-15T18:58:41.746Z,21.80
2018-06-15T19:04:49.745Z,21.70
2018-06-15T19:07:54.767Z,21.60
2018-06-15T19:10:59.142Z,21.60
2018-06-15T19:14:03.329Z,21.50
2018-06-15T19:17:07.597Z,21.50
2018-06-15T19:20:12.099Z,21.30
2018-06-15T19:23:16.635Z,21.30
2018-06-15T19:26:20.712Z,21.20
2018-06-15T19:29:25.100Z,21.20
2018-06-15T19:32:29.341Z,21.10
2018-06-15T19:35:33.681Z,21.10
2018-06-15T19:38:38.160Z,21.00
2018-06-15T19:41:42.688Z,20.90
2018-06-15T19:44:47.063Z,20.90
2018-06-15T19:47:51.512Z,20.80
2018-06-15T19:50:55.951Z,20.70
2018-06-15T19:54:00.053Z,20.70
2018-06-15T19:57:04.536Z,20.60
2018-06-15T20:00:08.864Z,20.50
2018-06-15T20:03:13.027Z,20.40
2018-06-15T20:06:17.417Z,20.40
2018-06-15T20:09:21.737Z,20.30
2018-06-15T20:12:26.056Z,20.20
2018-06-15T20:15:30.284Z,20.20
2018-06-15T20:18:34.615Z,20.10
2018-06-15T20:21:39.520Z,20.10
2018-06-15T20:24:43.953Z,20.00
2018-06-15T20:27:48.633Z,19.90
2018-06-15T20:30:53.365Z,19.90
2018-06-15T20:33:58.079Z,19.90
2018-06-15T20:37:02.289Z,19.90
2018-06-15T20:40:06.762Z,19.90
2018-06-15T20:43:11.291Z,19.90
2018-06-15T20:46:15.618Z,19.90
2018-06-15T20:49:20.001Z,19.80
2018-06-15T20:52:24.426Z,19.80
2018-06-15T20:55:28.711Z,19.80
2018-06-15T20:58:33.189Z,19.70
2018-06-15T21:01:38.984Z,19.60
2018-06-15T21:04:43.388Z,19.60
2018-06-15T21:07:48.285Z,19.60
2018-06-15T21:10:52.604Z,19.60
2018-06-15T21:13:57.004Z,19.60
2018-06-15T21:17:01.330Z,19.60
2018-06-15T21:20:05.938Z,19.60
2018-06-15T21:23:10.184Z,19.70
2018-06-15T21:26:14.531Z,19.70
2018-06-15T21:29:21.000Z,19.70
2018-06-15T21:32:25.206Z,19.80
2018-06-15T21:35:29.095Z,19.70
2018-06-15T21:38:34.743Z,19.80
2018-06-15T21:41:38.637Z,19.70
2018-06-15T21:44:43.003Z,19.80
2018-06-15T21:47:47.915Z,19.70
2018-06-15T21:50:53.173Z,19.70
2018-06-15T21:53:57.630Z,19.60
2018-06-15T21:57:01.863Z,19.70
2018-06-15T22:00:07.803Z,19.70
2018-06-15T22:03:11.883Z,19.60
2018-06-15T22:06:16.249Z,19.70
2018-06-15T22:09:20.536Z,19.70
2018-06-15T22:12:24.886Z,19.70
2018-06-15T22:15:29.193Z,19.70
2018-06-15T22:18:33.722Z,19.60
2018-06-15T22:21:38.079Z,19.60
2018-06-15T22:24:42.409Z,19.60
2018-06-15T22:27:46.680Z,19.60
2018-06-15T22:30:51.013Z,19.60
2018-06-15T22:33:55.187Z,19.60
2018-06-15T22:36:59.428Z,19.60
2018-06-15T22:40:03.728Z,19.60
2018-06-15T22:43:07.918Z,19.50
2018-06-15T22:46:12.230Z,19.50
2018-06-15T22:49:16.585Z,19.60
2018-06-15T22:52:21.374Z,19.50
2018-06-15T22:55:25.676Z,19.50
2018-06-15T22:58:30.033Z,19.50
2018-06-15T23:01:34.451Z,19.50
2018-06-15T23:04:38.637Z,19.50
2018-06-15T23:07:43.083Z,19.50
2018-06-15T23:10:47.404Z,19.50
2018-06-15T23:13:51.730Z,19.50
2018-06-15T23:16:55.942Z,19.60
2018-06-15T23:20:00.369Z,19.60
2018-06-15T23:23:04.711Z,19.60
2018-06-15T23:26:09.323Z,19.60
2018-06-15T23:29:13.765Z,19.60
2018-06-15T23:32:18.051Z,19.60
2018-06-15T23:35:22.465Z,19.50
2018-06-15T23:38:26.802Z,19.50
2018-06-15T23:41:31.129Z,19.60
2018-06-15T23:44:35.545Z,19.60
2018-06-15T23:47:39.981Z,19.60
2018-06-15T23:50:44.217Z,19.60
2018-06-15T23:53:48.526Z,19.60
2018-06-15T23:56:52.822Z,19.60
2018-06-15T23:59:57.205Z,19.60
